createdAt,value
2019-03-02T00:02:48.539Z,4.53
2019-03-02T00:06:52.816Z,4.33
2019-03-02T00:10:57.069Z,4.20
2019-03-02T00:15:01.468Z,4.27
2019-03-02T00:19:06.685Z,5.00
2019-03-02T00:23:11.778Z,3.83
2019-03-02T00:27:17.776Z,4.53
2019-03-02T00:31:22.123Z,4.10
2019-03-02T00:35:26.538Z,4.33
2019-03-02T00:39:30.953Z,4.40
2019-03-02T00:43:35.320Z,4.33
2019-03-02T00:47:39.624Z,4.80
2019-03-02T00:51:46.248Z,4.83
2019-03-02T00:55:49.797Z,5.07
2019-03-02T00:59:54.059Z,4.60
2019-03-02T01:03:58.375Z,5.37
2019-03-02T01:08:02.731Z,5.80
2019-03-02T01:12:09.128Z,5.53
2019-03-02T01:16:13.029Z,5.33
2019-03-02T01:20:17.278Z,5.00
2019-03-02T01:24:21.578Z,5.27
2019-03-02T01:28:25.880Z,5.30
2019-03-02T01:32:31.133Z,5.37
2019-03-02T01:36:35.619Z,5.93
2019-03-02T01:40:40.790Z,5.70
2019-03-02T01:44:48.772Z,5.50
2019-03-02T01:48:51.935Z,5.43
2019-03-02T01:52:56.179Z,5.30
2019-03-02T01:57:00.478Z,5.50
2019-03-02T02:01:05.152Z,5.70
2019-03-02T02:05:09.558Z,6.47
2019-03-02T02:09:13.849Z,7.03
2019-03-02T02:13:18.203Z,6.10
2019-03-02T02:17:22.580Z,5.70
2019-03-02T02:21:27.430Z,5.73
2019-03-02T02:25:32.622Z,5.03
2019-03-02T02:29:40.636Z,4.90
2019-03-02T02:33:44.626Z,4.77
2019-03-02T02:37:49.061Z,5.00
2019-03-02T02:41:53.357Z,3.87
2019-03-02T02:45:57.686Z,3.27
2019-03-02T02:50:02.069Z,4.13
2019-03-02T02:54:06.513Z,3.60
2019-03-02T02:58:12.512Z,3.37
2019-03-02T03:02:16.923Z,3.40
2019-03-02T03:06:21.274Z,3.37
2019-03-02T03:10:44.625Z,4.03
2019-03-02T03:14:49.024Z,3.20
2019-03-02T03:18:53.725Z,3.33
2019-03-02T03:22:58.223Z,3.10
2019-03-02T03:27:02.525Z,3.27
2019-03-02T03:31:06.820Z,3.03
2019-03-02T03:35:16.866Z,3.43
2019-03-02T03:39:17.130Z,3.53
2019-03-02T03:43:21.423Z,3.40
2019-03-02T03:47:25.792Z,3.43
2019-03-02T03:51:30.515Z,3.40
2019-03-02T03:55:36.464Z,3.80
2019-03-02T03:59:40.745Z,4.20
2019-03-02T04:03:46.959Z,4.30
2019-03-02T04:07:51.593Z,3.37
2019-03-02T04:11:56.044Z,3.77
2019-03-02T04:16:00.363Z,4.03
2019-03-02T04:20:08.096Z,3.90
2019-03-02T04:24:11.900Z,3.93
2019-03-02T04:28:16.242Z,4.37
2019-03-02T04:32:27.340Z,4.42
2019-03-02T04:36:26.577Z,4.73
2019-03-02T04:40:30.872Z,4.50
2019-03-02T04:44:35.225Z,4.30
2019-03-02T04:48:40.076Z,4.73
2019-03-02T04:52:46.602Z,5.57
2019-03-02T04:56:50.367Z,5.27
2019-03-02T05:00:54.817Z,5.27
2019-03-02T05:04:59.144Z,5.90
2019-03-02T05:09:04.951Z,5.43
2019-03-02T05:13:09.202Z,6.13
2019-03-02T05:17:13.484Z,5.70
2019-03-02T05:21:17.942Z,5.30
2019-03-02T05:25:22.311Z,4.97
2019-03-02T05:29:26.592Z,5.00
2019-03-02T05:33:30.963Z,5.00
2019-03-02T05:37:39.337Z,5.13
2019-03-02T05:41:41.267Z,5.50
2019-03-02T05:45:45.538Z,5.00
2019-03-02T05:49:50.773Z,4.90
2019-03-02T05:53:55.782Z,5.30
2019-03-02T05:58:00.126Z,4.90
2019-03-02T06:02:04.475Z,4.97
2019-03-02T06:06:08.758Z,4.80
2019-03-02T06:10:13.807Z,4.60
2019-03-02T06:14:18.188Z,4.77
2019-03-02T06:18:22.774Z,5.60
2019-03-02T06:22:27.159Z,5.10
2019-03-02T06:26:31.702Z,5.60
2019-03-02T06:30:40.638Z,5.30
2019-03-02T06:34:43.780Z,5.27
2019-03-02T06:38:48.332Z,5.60
2019-03-02T06:42:54.058Z,5.73
2019-03-02T06:46:59.185Z,5.60
2019-03-02T06:51:03.797Z,5.60
2019-03-02T06:55:09.436Z,5.70
2019-03-02T06:59:13.868Z,6.00
2019-03-02T07:03:18.310Z,5.83
2019-03-02T07:07:22.837Z,6.27
2019-03-02T07:11:29.904Z,6.60
2019-03-02T07:15:33.373Z,7.40
2019-03-02T07:19:48.619Z,7.57
2019-03-02T07:23:53.450Z,9.43
2019-03-02T07:27:57.891Z,9.57
2019-03-02T07:32:02.352Z,9.70
2019-03-02T07:36:06.829Z,10.33
2019-03-02T07:40:11.359Z,11.93
2019-03-02T07:44:18.833Z,12.33
2019-03-02T07:48:21.883Z,12.57
2019-03-02T07:52:26.307Z,13.93
2019-03-02T07:56:32.497Z,14.67
2019-03-02T08:00:37.863Z,15.47
2019-03-02T08:04:42.744Z,16.60
2019-03-02T08:08:49.243Z,17.23
2019-03-02T08:12:53.181Z,18.23
2019-03-02T08:16:57.550Z,18.40
2019-03-02T08:21:01.900Z,19.67
2019-03-02T08:25:07.432Z,18.87
2019-03-02T08:29:11.890Z,19.13
2019-03-02T08:33:16.292Z,19.03
2019-03-02T08:37:20.660Z,17.77
2019-03-02T08:41:25.183Z,19.20
2019-03-02T08:45:30.975Z,18.30
2019-03-02T08:49:38.464Z,17.87
2019-03-02T08:53:41.751Z,19.57
2019-03-02T08:57:46.263Z,19.10
2019-03-02T09:01:51.297Z,18.77
2019-03-02T09:05:56.807Z,20.17
2019-03-02T09:10:01.184Z,17.33
2019-03-02T09:14:05.492Z,16.70
2019-03-02T09:18:12.774Z,16.77
2019-03-02T09:22:17.118Z,17.37
2019-03-02T09:26:21.592Z,16.87
2019-03-02T09:30:26.039Z,15.07
2019-03-02T09:34:30.547Z,13.87
2019-03-02T09:38:35.017Z,12.93
2019-03-02T09:42:41.214Z,14.00
2019-03-02T09:46:45.477Z,12.93
2019-03-02T09:50:49.920Z,13.07
2019-03-02T09:54:54.319Z,11.73
2019-03-02T09:59:01.651Z,10.87
2019-03-02T10:03:04.862Z,8.73
2019-03-02T10:07:28.425Z,8.27
2019-03-02T10:11:32.819Z,8.43
2019-03-02T10:15:37.290Z,7.77
2019-03-02T10:19:41.698Z,8.50
2019-03-02T10:23:46.103Z,7.77
2019-03-02T10:27:53.937Z,7.50
2019-03-02T10:31:56.398Z,7.37
2019-03-02T10:36:00.854Z,7.77
2019-03-02T10:40:08.850Z,7.80
2019-03-02T10:44:12.662Z,9.17
2019-03-02T10:48:17.107Z,9.97
2019-03-02T10:52:21.578Z,10.77
2019-03-02T10:56:26.120Z,12.80
2019-03-02T11:00:31.437Z,12.60
2019-03-02T11:04:49.536Z,12.37
2019-03-02T11:09:22.164Z,13.33
2019-03-02T11:13:46.776Z,12.87
2019-03-02T11:18:19.403Z,13.87
2019-03-02T11:22:38.729Z,15.17
2019-03-02T11:26:51.089Z,18.17
2019-03-02T11:31:26.388Z,16.53
2019-03-02T11:35:53.117Z,16.43
2019-03-02T11:40:16.460Z,16.77
2019-03-02T11:44:38.885Z,14.97
2019-03-02T11:48:56.726Z,14.27
2019-03-02T11:53:17.081Z,14.10
2019-03-02T11:57:50.275Z,13.20
2019-03-02T12:02:19.983Z,15.53
2019-03-02T12:06:47.527Z,13.93
2019-03-02T12:11:10.423Z,14.53
2019-03-02T12:15:31.114Z,14.60
2019-03-02T12:19:50.626Z,15.53
2019-03-02T12:24:15.181Z,13.80
2019-03-02T12:28:42.040Z,14.67
2019-03-02T12:33:02.730Z,14.53
2019-03-02T12:37:41.304Z,14.07
2019-03-02T12:42:05.134Z,15.70
2019-03-02T12:46:42.050Z,15.63
2019-03-02T12:51:17.775Z,15.70
2019-03-02T12:55:39.798Z,16.13
2019-03-02T13:00:06.154Z,17.30
2019-03-02T13:04:28.605Z,18.60
2019-03-02T13:08:55.047Z,19.03
2019-03-02T13:13:16.901Z,22.53
2019-03-02T13:17:44.499Z,23.10
2019-03-02T13:22:08.007Z,26.17
2019-03-02T13:26:18.750Z,25.43
2019-03-02T13:30:51.225Z,25.93
2019-03-02T13:35:19.915Z,27.37
2019-03-02T13:39:35.804Z,27.03
2019-03-02T13:43:45.927Z,26.37
2019-03-02T13:48:08.082Z,26.80
2019-03-02T13:52:22.177Z,25.30
2019-03-02T13:57:01.136Z,25.03
2019-03-02T14:01:21.136Z,22.30
2019-03-02T14:05:55.021Z,22.87
2019-03-02T14:10:23.949Z,23.13
2019-03-02T14:14:46.295Z,24.03
2019-03-02T14:19:09.654Z,23.47
2019-03-02T14:23:35.909Z,24.57
2019-03-02T14:27:54.031Z,23.37
2019-03-02T14:32:24.136Z,23.77
2019-03-02T14:36:36.456Z,23.57
2019-03-02T14:41:16.004Z,23.23
2019-03-02T14:45:48.407Z,22.60
2019-03-02T14:50:01.987Z,21.53
2019-03-02T14:54:17.281Z,23.87
2019-03-02T14:58:40.209Z,21.83
2019-03-02T15:03:12.924Z,22.97
2019-03-02T15:07:31.628Z,25.02
2019-03-02T15:11:53.657Z,22.83
2019-03-02T15:16:06.710Z,20.90
2019-03-02T15:20:28.859Z,21.67
2019-03-02T15:24:53.019Z,21.60
2019-03-02T15:29:14.944Z,22.03
2019-03-02T15:33:24.870Z,21.23
2019-03-02T15:37:38.908Z,20.67
2019-03-02T15:42:01.188Z,21.00
2019-03-02T15:46:27.356Z,19.20
2019-03-02T15:50:51.289Z,20.53
2019-03-02T15:55:13.625Z,20.37
2019-03-02T15:59:37.296Z,19.83
2019-03-02T16:04:00.926Z,19.53
2019-03-02T16:12:31.126Z,18.27
2019-03-02T16:16:59.859Z,17.93
2019-03-02T16:21:12.181Z,17.73
2019-03-02T16:25:26.535Z,19.13
2019-03-02T16:29:42.274Z,18.47
2019-03-02T16:34:04.319Z,18.70
2019-03-02T16:38:31.027Z,17.90
2019-03-02T16:42:50.968Z,18.43
2019-03-02T16:47:16.128Z,17.83
2019-03-02T16:51:41.920Z,18.67
2019-03-02T16:56:11.376Z,16.57
2019-03-02T17:00:28.778Z,17.53
2019-03-02T17:04:40.211Z,17.73
2019-03-02T17:09:08.027Z,17.00
2019-03-02T17:13:33.487Z,18.07
2019-03-02T17:17:51.291Z,17.80
2019-03-02T17:22:14.679Z,17.07
2019-03-02T17:26:42.089Z,18.00
2019-03-02T17:30:52.799Z,17.97
2019-03-02T17:35:25.175Z,17.63
2019-03-02T17:39:54.983Z,17.33
2019-03-02T17:44:18.741Z,17.57
2019-03-02T17:48:31.130Z,19.30
2019-03-02T17:52:46.835Z,18.57
2019-03-02T17:57:22.040Z,19.37
2019-03-02T18:01:42.879Z,18.07
2019-03-02T18:06:02.600Z,20.47
2019-03-02T18:10:17.789Z,20.20
2019-03-02T18:14:39.920Z,20.10
2019-03-02T18:18:44.387Z,20.23
2019-03-02T18:22:48.729Z,19.43
2019-03-02T18:26:53.063Z,18.47
2019-03-02T18:30:57.591Z,18.27
2019-03-02T18:35:02.859Z,18.17
2019-03-02T18:39:09.184Z,18.67
2019-03-02T18:43:15.306Z,17.10
2019-03-02T18:47:19.723Z,18.47
2019-03-02T18:51:46.232Z,17.47
2019-03-02T18:55:50.665Z,18.10
2019-03-02T18:59:54.983Z,18.03
2019-03-02T19:04:00.147Z,18.63
2019-03-02T19:08:04.750Z,18.17
2019-03-02T19:12:09.087Z,16.60
2019-03-02T19:16:13.424Z,17.60
2019-03-02T19:20:17.819Z,19.50
2019-03-02T19:24:22.221Z,17.60
2019-03-02T19:28:26.668Z,18.80
2019-03-02T19:32:31.107Z,18.60
2019-03-02T19:36:35.508Z,19.30
2019-03-02T19:40:39.875Z,18.87
2019-03-02T19:44:44.332Z,19.43
2019-03-02T19:48:49.092Z,19.20
2019-03-02T19:52:53.367Z,19.63
2019-03-02T19:56:57.738Z,19.67
2019-03-02T20:01:02.060Z,19.20
2019-03-02T20:05:06.646Z,19.10
2019-03-02T20:09:10.954Z,19.83
2019-03-02T20:13:15.360Z,19.27
2019-03-02T20:17:19.727Z,18.33
2019-03-02T20:21:24.166Z,18.53
2019-03-02T20:25:28.590Z,17.67
2019-03-02T20:29:32.887Z,17.50
2019-03-02T20:33:37.228Z,17.53
2019-03-02T20:37:41.559Z,17.57
2019-03-02T20:41:45.989Z,17.63
2019-03-02T20:45:50.312Z,19.20
2019-03-02T20:49:54.743Z,17.43
2019-03-02T20:53:59.012Z,18.00
2019-03-02T20:58:03.474Z,18.07
2019-03-02T21:02:07.871Z,19.73
2019-03-02T21:06:12.280Z,17.27
2019-03-02T21:10:17.862Z,18.27
2019-03-02T21:14:22.219Z,17.40
2019-03-02T21:18:26.622Z,17.00
2019-03-02T21:22:31.029Z,16.30
2019-03-02T21:26:35.518Z,17.23
2019-03-02T21:30:39.870Z,16.43
2019-03-02T21:34:44.247Z,18.63
2019-03-02T21:38:48.742Z,14.90
2019-03-02T21:42:53.121Z,14.70
2019-03-02T21:46:57.530Z,14.33
2019-03-02T21:51:02.036Z,14.17
2019-03-02T21:55:06.480Z,14.93
2019-03-02T21:59:10.866Z,14.70
2019-03-02T22:03:15.209Z,15.80
2019-03-02T22:07:19.552Z,15.10
2019-03-02T22:11:23.896Z,16.73
2019-03-02T22:15:28.328Z,17.30
2019-03-02T22:19:32.828Z,17.53
2019-03-02T22:23:37.113Z,19.17
2019-03-02T22:27:41.483Z,20.37
2019-03-02T22:31:45.906Z,21.67
2019-03-02T22:35:50.334Z,22.03
2019-03-02T22:39:55.255Z,21.43
2019-03-02T22:43:59.708Z,23.23
2019-03-02T22:48:03.981Z,23.17
2019-03-02T22:52:08.313Z,21.93
2019-03-02T22:56:12.639Z,21.67
2019-03-02T23:01:00.883Z,20.93
2019-03-02T23:05:05.183Z,20.73
2019-03-02T23:09:11.483Z,20.83
2019-03-02T23:13:16.924Z,18.40
2019-03-02T23:17:21.303Z,18.10
2019-03-02T23:21:25.757Z,16.00
2019-03-02T23:25:30.149Z,14.57
2019-03-02T23:29:34.658Z,16.00
2019-03-02T23:33:39.139Z,15.90
2019-03-02T23:37:43.603Z,17.33
2019-03-02T23:41:47.995Z,17.13
2019-03-02T23:45:52.356Z,17.70
2019-03-02T23:49:56.679Z,20.33
2019-03-02T23:54:01.137Z,21.27
2019-03-02T23:58:05.575Z,21.13
